Costa Luminosa — ICGU — position and weather

sailwx.info

Track history (hours):
 
Tides and Currents Weather Stations Pressure Air Temp Water Temp Dewpoint Dewpoint Depression Visibility Wind Speed Wind Dir Waves Ship Positions

Costa Luminosa

Last reported at 2019-Jan-15 20:46 UTC. Time now 2019-Jan-23 17:32 UTC.
Position N 28°05' W 016°17'.

Length 294 m; draft 8.1 m.

Type: Passenger vessel. MMSI: 247257900.

Date/timePositionNaut miles runAvg speedWind from/ knotsBaromVisibWave heightAir tempDewpointWater temp
2019-Jan-15 20:46N 28°05' W 016°17'416.8
2019-Jan-15 20:30N 28°08' W 016°13'816.9
2019-Jan-15 20:00N 28°15' W 016°07'814.5
2019-Jan-15 19:29N 28°22' W 016°06'816.3
2019-Jan-15 19:01N 28°27' W 016°13'2 4.5
2019-Jan-15 18:31N 28°28' W 016°15'0 0.0
2019-Jan-15 17:58N 28°28' W 016°15'0 0.0
2019-Jan-15 17:28N 28°28' W 016°15'0 0.0
2019-Jan-15 16:58N 28°28' W 016°15'0 0.0
2019-Jan-15 16:28N 28°28' W 016°15'0 0.0
2019-Jan-15 15:58N 28°28' W 016°15'0 0.0
2019-Jan-15 15:28N 28°28' W 016°15'0 0.0
2019-Jan-15 14:58N 28°28' W 016°15'0 0.0
2019-Jan-15 14:28N 28°28' W 016°15'0 0.0
2019-Jan-15 13:58N 28°28' W 016°15'0 0.0
2019-Jan-15 13:28N 28°28' W 016°15'0 0.0
2019-Jan-15 12:55N 28°28' W 016°15'0 0.0
2019-Jan-15 12:28N 28°28' W 016°15'0 0.0
2019-Jan-15 11:58N 28°28' W 016°15'0 0.0
2019-Jan-15 11:28N 28°28' W 016°15'0 0.0
2019-Jan-15 10:58N 28°28' W 016°15'0 0.0
2019-Jan-15 10:28N 28°28' W 016°15'0 0.0
2019-Jan-15 09:58N 28°28' W 016°15'0 0.0
2019-Jan-15 09:28N 28°28' W 016°15'0 0.0
2019-Jan-15 08:58N 28°28' W 016°15'0 0.0
2019-Jan-15 08:28N 28°28' W 016°15'0 0.0
2019-Jan-15 07:58N 28°28' W 016°15'0 0.0
2019-Jan-15 07:30N 28°28' W 016°15'1 1.6
2019-Jan-15 07:00N 28°29' W 016°14'815.8
2019-Jan-15 06:30N 28°27' W 016°05'918.4
2019-Jan-15 06:00N 28°27' W 015°55'1020.0
2019-Jan-15 05:29N 28°35' W 015°47'  
2019-Jan-11 18:59N 40°54' E 001°53'1020.4
2019-Jan-11 18:30N 41°02' E 002°00'1020.3
2019-Jan-11 18:00N 41°11' E 002°07'714.6
2019-Jan-11 17:30N 41°18' E 002°11'4 7.1
2019-Jan-11 17:01N 41°21' E 002°10'0 0.0
2019-Jan-11 16:28N 41°21' E 002°10'0 0.0
2019-Jan-11 15:56N 41°21' E 002°10'0 0.0
2019-Jan-11 15:25N 41°21' E 002°10'0 0.0
2019-Jan-11 14:59N 41°21' E 002°10'0 0.0
2019-Jan-11 14:28N 41°21' E 002°10'0 0.0
2019-Jan-11 13:58N 41°21' E 002°10'0 0.0
2019-Jan-11 13:28N 41°21' E 002°10'0 0.0
2019-Jan-11 12:58N 41°21' E 002°10'0 0.0
2019-Jan-11 12:28N 41°21' E 002°10'0 0.0
2019-Jan-11 11:58N 41°21' E 002°10'0 0.0
2019-Jan-11 11:28N 41°21' E 002°10'0 0.0
2019-Jan-11 10:58N 41°21' E 002°10'0 0.0
2019-Jan-11 10:28N 41°21' E 002°10'0 0.0
2019-Jan-11 09:58N 41°21' E 002°10'0 0.0
2019-Jan-11 09:28N 41°21' E 002°10'0 0.0
2019-Jan-11 08:58N 41°21' E 002°10'0 0.0
2019-Jan-11 08:28N 41°21' E 002°10'0 0.0
2019-Jan-11 07:58N 41°21' E 002°10'0 0.0
2019-Jan-11 07:28N 41°21' E 002°10'0 0.0
2019-Jan-11 07:00N 41°21' E 002°10'1 1.8
2019-Jan-11 06:30N 41°20' E 002°10'4 7.3
2019-Jan-11 06:00N 41°17' E 002°12'4 8.8
2019-Jan-11 05:30N 41°17' E 002°17'611.3
2019-Jan-11 05:00N 41°19' E 002°24'714.6
2019-Jan-11 04:30N 41°23' E 002°32'15614.9
2019-Jan-10 18:02N 43°11' E 005°05'016.0
2019-Jan-10 18:00N 43°11' E 005°06'817.0
2019-Jan-10 17:30N 43°18' E 005°13'610.9
2019-Jan-10 16:58N 43°21' E 005°20'0 0.4
2019-Jan-10 15:49N 43°21' E 005°20'0 0.0
2019-Jan-10 15:28N 43°21' E 005°20'0 0.0
2019-Jan-10 13:58N 43°21' E 005°20'0 0.0
2019-Jan-10 13:16N 43°21' E 005°20'0 0.0
2019-Jan-10 12:58N 43°21' E 005°20'0 0.0
2019-Jan-10 10:58N 43°21' E 005°20'0 0.0
2019-Jan-10 10:25N 43°21' E 005°20'0 0.0
2019-Jan-10 09:49N 43°21' E 005°20'0 0.0
2019-Jan-10 09:19N 43°21' E 005°20'0 0.0
2019-Jan-10 08:43N 43°21' E 005°20'0 0.0
2019-Jan-10 08:19N 43°21' E 005°20'0 0.0
2019-Jan-10 07:37N 43°21' E 005°20'0 0.0
2019-Jan-10 07:10N 43°21' E 005°20'0 0.0
2019-Jan-10 06:58N 43°21' E 005°20'0 0.0
2019-Jan-10 06:13N 43°21' E 005°20'0 0.0
2019-Jan-10 05:41N 43°21' E 005°20'0 0.0
2019-Jan-10 05:30N 43°21' E 005°20'3 5.7
2019-Jan-10 05:00N 43°20' E 005°16'612.4
2019-Jan-10 04:30N 43°15' E 005°10'6313.5
2019-Jan-09 23:51N 42°54' E 006°31'615.6
2019-Jan-09 23:29N 42°54' E 006°39'1015.4
2019-Jan-09 22:50N 42°55' E 006°53'515.2
2019-Jan-09 22:31N 42°56' E 006°59'815.1
2019-Jan-09 22:00N 42°58' E 007°09'714.8
2019-Jan-09 21:30N 42°59' E 007°19'714.6
2019-Jan-09 21:01N 42°59' E 007°29'714.2
2019-Jan-09 20:31N 43°00' E 007°39'714.4
2019-Jan-09 20:01N 43°02' E 007°49'714.8
2019-Jan-09 19:31N 43°03' E 007°59'714.8
2019-Jan-09 19:01N 43°04' E 008°09'714.8
2019-Jan-09 18:31N 43°05' E 008°19'714.8
2019-Jan-09 18:01N 43°06' E 008°29'2815.0
2019-Jan-09 16:10N 43°10' E 009°06'315.2
2019-Jan-09 15:58N 43°09' E 009°10'715.4
2019-Jan-09 15:30N 43°08' E 009°20'815.1
2019-Jan-09 15:00N 43°07' E 009°30'713.7
2019-Jan-09 14:30N 43°03' E 009°38'3115.6
2019-Jan-09 12:32N 42°33' E 009°48'215.8
2019-Jan-09 12:25N 42°31' E 009°48'312 7.0
2019-Jan-07 16:05N 38°60' E 014°52'218.6
2019-Jan-07 15:59N 38°58' E 014°53'918.7
2019-Jan-07 15:30N 38°52' E 015°01'918.6
2019-Jan-07 15:01N 38°45' E 015°09'918.5
2019-Jan-07 14:31N 38°38' E 015°17'918.2
2019-Jan-07 14:01N 38°32' E 015°25'918.5
2019-Jan-07 13:30N 38°25' E 015°33'918.0
2019-Jan-07 13:00N 38°19' E 015°42'510.0
2019-Jan-07 12:30N 38°15' E 015°39'713.4
2019-Jan-07 12:00N 38°08' E 015°36'510.7
2019-Jan-07 11:30N 38°03' E 015°36'714.1
2019-Jan-07 11:00N 37°56' E 015°38'815.3
2019-Jan-07 10:30N 37°51' E 015°46'917.0
2019-Jan-07 10:00N 37°51' E 015°57'3117.0
2019-Jan-07 08:08N 38°09' E 016°29'319.4
2019-Jan-07 08:00N 38°11' E 016°32'34811.3
2019-Jan-06 01:19N 43°41' E 014°07'620.3
2019-Jan-06 01:00N 43°46' E 014°01'2720.2
2019-Jan-05 23:39N 44°02' E 013°31'320.2
2019-Jan-05 23:29N 44°04' E 013°27'1019.9
2019-Jan-05 23:00N 44°10' E 013°16'1019.9
2019-Jan-05 22:30N 44°18' E 013°10'1120.2
2019-Jan-05 21:57N 44°29' E 013°04'1020.0
2019-Jan-05 21:25N 44°39' E 012°59'819.6
2019-Jan-05 21:01N 44°47' E 012°55'  
Track history (hours):
 
Tides and Currents Weather Stations Pressure Air Temp Water Temp Dewpoint Dewpoint Depression Visibility Wind Speed Wind Dir Waves Ship Positions

Costa Luminosa

Last reported at 2019-Jan-15 20:46 UTC. Time now 2019-Jan-23 17:32 UTC.
Position N 28°05' W 016°17'.

Length 294 m; draft 8.1 m.

Type: Passenger vessel. MMSI: 247257900.

Date/timePositionNaut miles runAvg speedWind from/ knotsBaromVisibWave heightAir tempDewpointWater temp
2019-Jan-15 20:46N 28°05' W 016°17'416.8
2019-Jan-15 20:30N 28°08' W 016°13'816.9
2019-Jan-15 20:00N 28°15' W 016°07'814.5
2019-Jan-15 19:29N 28°22' W 016°06'816.3
2019-Jan-15 19:01N 28°27' W 016°13'2 4.5
2019-Jan-15 18:31N 28°28' W 016°15'0 0.0
2019-Jan-15 17:58N 28°28' W 016°15'0 0.0
2019-Jan-15 17:28N 28°28' W 016°15'0 0.0
2019-Jan-15 16:58N 28°28' W 016°15'0 0.0
2019-Jan-15 16:28N 28°28' W 016°15'0 0.0
2019-Jan-15 15:58N 28°28' W 016°15'0 0.0
2019-Jan-15 15:28N 28°28' W 016°15'0 0.0
2019-Jan-15 14:58N 28°28' W 016°15'0 0.0
2019-Jan-15 14:28N 28°28' W 016°15'0 0.0
2019-Jan-15 13:58N 28°28' W 016°15'0 0.0
2019-Jan-15 13:28N 28°28' W 016°15'0 0.0
2019-Jan-15 12:55N 28°28' W 016°15'0 0.0
2019-Jan-15 12:28N 28°28' W 016°15'0 0.0
2019-Jan-15 11:58N 28°28' W 016°15'0 0.0
2019-Jan-15 11:28N 28°28' W 016°15'0 0.0
2019-Jan-15 10:58N 28°28' W 016°15'0 0.0
2019-Jan-15 10:28N 28°28' W 016°15'0 0.0
2019-Jan-15 09:58N 28°28' W 016°15'0 0.0
2019-Jan-15 09:28N 28°28' W 016°15'0 0.0
2019-Jan-15 08:58N 28°28' W 016°15'0 0.0
2019-Jan-15 08:28N 28°28' W 016°15'0 0.0
2019-Jan-15 07:58N 28°28' W 016°15'0 0.0
2019-Jan-15 07:30N 28°28' W 016°15'1 1.6
2019-Jan-15 07:00N 28°29' W 016°14'815.8
2019-Jan-15 06:30N 28°27' W 016°05'918.4
2019-Jan-15 06:00N 28°27' W 015°55'1020.0
2019-Jan-15 05:29N 28°35' W 015°47'  
2019-Jan-11 18:59N 40°54' E 001°53'1020.4
2019-Jan-11 18:30N 41°02' E 002°00'1020.3
2019-Jan-11 18:00N 41°11' E 002°07'714.6
2019-Jan-11 17:30N 41°18' E 002°11'4 7.1
2019-Jan-11 17:01N 41°21' E 002°10'0 0.0
2019-Jan-11 16:28N 41°21' E 002°10'0 0.0
2019-Jan-11 15:56N 41°21' E 002°10'0 0.0
2019-Jan-11 15:25N 41°21' E 002°10'0 0.0
2019-Jan-11 14:59N 41°21' E 002°10'0 0.0
2019-Jan-11 14:28N 41°21' E 002°10'0 0.0
2019-Jan-11 13:58N 41°21' E 002°10'0 0.0
2019-Jan-11 13:28N 41°21' E 002°10'0 0.0
2019-Jan-11 12:58N 41°21' E 002°10'0 0.0
2019-Jan-11 12:28N 41°21' E 002°10'0 0.0
2019-Jan-11 11:58N 41°21' E 002°10'0 0.0
2019-Jan-11 11:28N 41°21' E 002°10'0 0.0
2019-Jan-11 10:58N 41°21' E 002°10'0 0.0
2019-Jan-11 10:28N 41°21' E 002°10'0 0.0
2019-Jan-11 09:58N 41°21' E 002°10'0 0.0
2019-Jan-11 09:28N 41°21' E 002°10'0 0.0
2019-Jan-11 08:58N 41°21' E 002°10'0 0.0
2019-Jan-11 08:28N 41°21' E 002°10'0 0.0
2019-Jan-11 07:58N 41°21' E 002°10'0 0.0
2019-Jan-11 07:28N 41°21' E 002°10'0 0.0
2019-Jan-11 07:00N 41°21' E 002°10'1 1.8
2019-Jan-11 06:30N 41°20' E 002°10'4 7.3
2019-Jan-11 06:00N 41°17' E 002°12'4 8.8
2019-Jan-11 05:30N 41°17' E 002°17'611.3
2019-Jan-11 05:00N 41°19' E 002°24'714.6
2019-Jan-11 04:30N 41°23' E 002°32'15614.9
2019-Jan-10 18:02N 43°11' E 005°05'016.0
2019-Jan-10 18:00N 43°11' E 005°06'817.0
2019-Jan-10 17:30N 43°18' E 005°13'610.9
2019-Jan-10 16:58N 43°21' E 005°20'0 0.4
2019-Jan-10 15:49N 43°21' E 005°20'0 0.0
2019-Jan-10 15:28N 43°21' E 005°20'0 0.0
2019-Jan-10 13:58N 43°21' E 005°20'0 0.0
2019-Jan-10 13:16N 43°21' E 005°20'0 0.0
2019-Jan-10 12:58N 43°21' E 005°20'0 0.0
2019-Jan-10 10:58N 43°21' E 005°20'0 0.0
2019-Jan-10 10:25N 43°21' E 005°20'0 0.0
2019-Jan-10 09:49N 43°21' E 005°20'0 0.0
2019-Jan-10 09:19N 43°21' E 005°20'0 0.0
2019-Jan-10 08:43N 43°21' E 005°20'0 0.0
2019-Jan-10 08:19N 43°21' E 005°20'0 0.0
2019-Jan-10 07:37N 43°21' E 005°20'0 0.0
2019-Jan-10 07:10N 43°21' E 005°20'0 0.0
2019-Jan-10 06:58N 43°21' E 005°20'0 0.0
2019-Jan-10 06:13N 43°21' E 005°20'0 0.0
2019-Jan-10 05:41N 43°21' E 005°20'0 0.0
2019-Jan-10 05:30N 43°21' E 005°20'3 5.7
2019-Jan-10 05:00N 43°20' E 005°16'612.4
2019-Jan-10 04:30N 43°15' E 005°10'6313.5
2019-Jan-09 23:51N 42°54' E 006°31'615.6
2019-Jan-09 23:29N 42°54' E 006°39'1015.4
2019-Jan-09 22:50N 42°55' E 006°53'515.2
2019-Jan-09 22:31N 42°56' E 006°59'815.1
2019-Jan-09 22:00N 42°58' E 007°09'714.8
2019-Jan-09 21:30N 42°59' E 007°19'714.6
2019-Jan-09 21:01N 42°59' E 007°29'714.2
2019-Jan-09 20:31N 43°00' E 007°39'714.4
2019-Jan-09 20:01N 43°02' E 007°49'714.8
2019-Jan-09 19:31N 43°03' E 007°59'714.8
2019-Jan-09 19:01N 43°04' E 008°09'714.8
2019-Jan-09 18:31N 43°05' E 008°19'714.8
2019-Jan-09 18:01N 43°06' E 008°29'2815.0
2019-Jan-09 16:10N 43°10' E 009°06'315.2
2019-Jan-09 15:58N 43°09' E 009°10'715.4
2019-Jan-09 15:30N 43°08' E 009°20'815.1
2019-Jan-09 15:00N 43°07' E 009°30'713.7
2019-Jan-09 14:30N 43°03' E 009°38'3115.6
2019-Jan-09 12:32N 42°33' E 009°48'215.8
2019-Jan-09 12:25N 42°31' E 009°48'312 7.0
2019-Jan-07 16:05N 38°60' E 014°52'218.6
2019-Jan-07 15:59N 38°58' E 014°53'918.7
2019-Jan-07 15:30N 38°52' E 015°01'918.6
2019-Jan-07 15:01N 38°45' E 015°09'918.5
2019-Jan-07 14:31N 38°38' E 015°17'918.2
2019-Jan-07 14:01N 38°32' E 015°25'918.5
2019-Jan-07 13:30N 38°25' E 015°33'918.0
2019-Jan-07 13:00N 38°19' E 015°42'510.0
2019-Jan-07 12:30N 38°15' E 015°39'713.4
2019-Jan-07 12:00N 38°08' E 015°36'510.7
2019-Jan-07 11:30N 38°03' E 015°36'714.1
2019-Jan-07 11:00N 37°56' E 015°38'815.3
2019-Jan-07 10:30N 37°51' E 015°46'917.0
2019-Jan-07 10:00N 37°51' E 015°57'3117.0
2019-Jan-07 08:08N 38°09' E 016°29'319.4
2019-Jan-07 08:00N 38°11' E 016°32'34811.3
2019-Jan-06 01:19N 43°41' E 014°07'620.3
2019-Jan-06 01:00N 43°46' E 014°01'2720.2
2019-Jan-05 23:39N 44°02' E 013°31'320.2
2019-Jan-05 23:29N 44°04' E 013°27'1019.9
2019-Jan-05 23:00N 44°10' E 013°16'1019.9
2019-Jan-05 22:30N 44°18' E 013°10'1120.2
2019-Jan-05 21:57N 44°29' E 013°04'1020.0
2019-Jan-05 21:25N 44°39' E 012°59'819.6
2019-Jan-05 21:01N 44°47' E 012°55'  

Dump ship's entire track history